PWSweather.com
Personal Weather Stations
Station Observations
THAIWX
Pa Daet, Chiang MaiTH 50100

Pa DaetChiang MaiTH 50100

Lat: 18.766158, Lon: 98.97553

Elevation: 1007

Station Type: LaCrosse WS2315

http://www.ThaiWx.yolasite.com/

High Low Average
Temperature 94.5°F34.7°F 78.1°F25.6°F 86.2°F30.1°F
Dew Point 77.3°F25.2°F 62.3°F16.8°F 68.9°F20.5°F
Winds 2.2 mph SW3.5 mph SW Calm Calm 0.2 mph 0.3 mph
Wind Gusts 2.2 mph3.5 mph -- 0.4 mph0.6 mph
Humidity 74% 42% 58%
Pressure 29.96 in1014.60 in 29.74 in1007.10 in -
Precipitation 0.24 in6.10 in - -
Hour Temp Dew Point Humidity Winds Wind Gusts Pressure Precip Precip Rate Daily Precip Total
12:02 AM 82.9°F28.3°C 68.5°F20.3°C 62% Calm Calm -- 29.85 in1010.8 mb 0.00 in0.0 mm 0.00 in0.0 mm 0.00 in0.0 mm
12:08 AM 82.8°F28.2°C 68.8°F20.4°C 63% Calm Calm -- 29.86 in1011.2 mb 0.00 in0.0 mm 0.00 in0.0 mm 0.00 in0.0 mm
12:15 AM 82.6°F28.1°C 68.6°F20.3°C 63% Calm Calm -- 29.86 in1011.2 mb 0.00 in0.0 mm 0.00 in0.0 mm 0.00 in0.0 mm
12:19 AM 82.6°F28.1°C 68.6°F20.3°C 63% Calm Calm -- 29.86 in1011.2 mb 0.00 in0.0 mm 0.00 in0.0 mm 0.00 in0.0 mm
12:23 AM 82.4°F28.0°C 68.5°F20.3°C 63% Calm Calm -- 29.86 in1011.2 mb 0.00 in0.0 mm 0.00 in0.0 mm 0.00 in0.0 mm
12:30 AM 82.2°F27.9°C 68.7°F20.4°C 64% Calm Calm -- 29.86 in1011.2 mb 0.00 in0.0 mm 0.00 in0.0 mm 0.00 in0.0 mm
12:34 AM 82.2°F27.9°C 68.7°F20.4°C 64% Calm Calm -- 29.86 in1011.2 mb 0.00 in0.0 mm 0.00 in0.0 mm 0.00 in0.0 mm
12:41 AM 82.0°F27.8°C 68.6°F20.3°C 64% Calm Calm -- 29.86 in1011.2 mb 0.00 in0.0 mm 0.00 in0.0 mm 0.00 in0.0 mm
12:45 AM 82.0°F27.8°C 68.6°F20.3°C 64% Calm Calm -- 29.86 in1011.2 mb 0.00 in0.0 mm 0.00 in0.0 mm 0.00 in0.0 mm
12:51 AM 82.0°F27.8°C 69.0°F20.6°C 65% Calm Calm -- 29.86 in1011.2 mb 0.00 in0.0 mm 0.00 in0.0 mm 0.00 in0.0 mm
12:56 AM 81.7°F27.6°C 68.9°F20.5°C 65% Calm Calm -- 29.85 in1010.8 mb 0.00 in0.0 mm 0.00 in0.0 mm 0.00 in0.0 mm
01:02 AM 81.7°F27.6°C 68.7°F20.4°C 65% Calm Calm -- 29.85 in1010.8 mb 0.00 in0.0 mm 0.00 in0.0 mm 0.00 in0.0 mm
01:06 AM 81.7°F27.6°C 68.7°F20.4°C 65% Calm Calm -- 29.85 in1010.8 mb 0.00 in0.0 mm 0.00 in0.0 mm 0.00 in0.0 mm
01:11 AM 81.5°F27.5°C 68.7°F20.4°C 65% Calm Calm -- 29.85 in1010.8 mb 0.00 in0.0 mm 0.00 in0.0 mm 0.00 in0.0 mm
01:17 AM 81.5°F27.5°C 69.0°F20.6°C 66% Calm Calm -- 29.85 in1010.8 mb 0.00 in0.0 mm 0.00 in0.0 mm 0.00 in0.0 mm
01:21 AM 81.3°F27.4°C 68.8°F20.4°C 66% Calm Calm -- 29.85 in1010.8 mb 0.00 in0.0 mm 0.00 in0.0 mm 0.00 in0.0 mm
01:28 AM 81.3°F27.4°C 68.8°F20.4°C 66% Calm Calm -- 29.85 in1010.8 mb 0.00 in0.0 mm 0.00 in0.0 mm 0.00 in0.0 mm
01:32 AM 81.3°F27.4°C 68.8°F20.4°C 66% Calm Calm -- 29.85 in1010.8 mb 0.00 in0.0 mm 0.00 in0.0 mm 0.00 in0.0 mm
01:36 AM 81.1°F27.3°C 68.7°F20.4°C 66% Calm Calm -- 29.85 in1010.8 mb 0.00 in0.0 mm 0.00 in0.0 mm 0.00 in0.0 mm
01:43 AM 81.1°F27.3°C 68.7°F20.4°C 66% Calm Calm -- 29.85 in1010.8 mb 0.00 in0.0 mm 0.00 in0.0 mm 0.00 in0.0 mm
01:47 AM 81.1°F27.3°C 68.7°F20.4°C 66% Calm Calm -- 29.85 in1010.8 mb 0.00 in0.0 mm 0.00 in0.0 mm 0.00 in0.0 mm
01:51 AM 81.1°F27.3°C 68.2°F20.1°C 65% Calm Calm -- 29.85 in1010.8 mb 0.00 in0.0 mm 0.00 in0.0 mm 0.00 in0.0 mm
01:58 AM 81.3°F27.4°C 68.4°F20.2°C 65% Calm Calm -- 29.84 in1010.5 mb 0.00 in0.0 mm 0.00 in0.0 mm 0.00 in0.0 mm
02:02 AM 81.1°F27.3°C 68.7°F20.4°C 66% Calm Calm -- 29.84 in1010.5 mb 0.00 in0.0 mm 0.00 in0.0 mm 0.00 in0.0 mm
02:08 AM 81.1°F27.3°C 68.7°F20.4°C 66% Calm Calm -- 29.84 in1010.5 mb 0.00 in0.0 mm 0.00 in0.0 mm 0.00 in0.0 mm
02:13 AM 81.1°F27.3°C 68.7°F20.4°C 66% Calm Calm -- 29.84 in1010.5 mb 0.00 in0.0 mm 0.00 in0.0 mm 0.00 in0.0 mm
02:17 AM 81.1°F27.3°C 68.7°F20.4°C 66% Calm Calm -- 29.83 in1010.2 mb 0.00 in0.0 mm 0.00 in0.0 mm 0.00 in0.0 mm
02:23 AM 81.0°F27.2°C 68.5°F20.3°C 66% Calm Calm -- 29.84 in1010.5 mb 0.00 in0.0 mm 0.00 in0.0 mm 0.00 in0.0 mm
02:28 AM 80.8°F27.1°C 68.8°F20.4°C 67% Calm Calm -- 29.84 in1010.5 mb 0.00 in0.0 mm 0.00 in0.0 mm 0.00 in0.0 mm
02:34 AM 80.8°F27.1°C 68.8°F20.4°C 67% Calm Calm -- 29.83 in1010.2 mb 0.00 in0.0 mm 0.00 in0.0 mm 0.00 in0.0 mm
02:38 AM 80.6°F27.0°C 68.6°F20.3°C 67% Calm Calm -- 29.83 in1010.2 mb 0.00 in0.0 mm 0.00 in0.0 mm 0.00 in0.0 mm
02:43 AM 80.4°F26.9°C 68.5°F20.3°C 67% Calm Calm -- 29.83 in1010.2 mb 0.00 in0.0 mm 0.00 in0.0 mm 0.00 in0.0 mm
02:49 AM 80.4°F26.9°C 68.9°F20.5°C 68% Calm Calm -- 29.83 in1010.2 mb 0.00 in0.0 mm 0.00 in0.0 mm 0.00 in0.0 mm
02:53 AM 80.2°F26.8°C 68.7°F20.4°C 68% Calm Calm -- 29.83 in1010.2 mb 0.00 in0.0 mm 0.00 in0.0 mm 0.00 in0.0 mm
02:58 AM 80.2°F26.8°C 68.7°F20.4°C 69% Calm Calm -- 29.83 in1010.2 mb 0.00 in0.0 mm 0.00 in0.0 mm 0.00 in0.0 mm
03:04 AM 80.1°F26.7°C 69.0°F20.6°C 69% Calm Calm -- 29.83 in1010.2 mb 0.00 in0.0 mm 0.00 in0.0 mm 0.00 in0.0 mm
03:08 AM 79.9°F26.6°C 68.8°F20.4°C 70% Calm Calm -- 29.83 in1010.2 mb 0.00 in0.0 mm 0.00 in0.0 mm 0.00 in0.0 mm
03:13 AM 79.7°F26.5°C 69.3°F20.7°C 70% Calm Calm -- 29.83 in1010.2 mb 0.00 in0.0 mm 0.00 in0.0 mm 0.00 in0.0 mm
03:19 AM 79.5°F26.4°C 69.1°F20.6°C 70% Calm Calm -- 29.82 in1009.8 mb 0.00 in0.0 mm 0.00 in0.0 mm 0.00 in0.0 mm
03:23 AM 79.5°F26.4°C 68.9°F20.5°C 70% Calm Calm -- 29.82 in1009.8 mb 0.00 in0.0 mm 0.00 in0.0 mm 0.00 in0.0 mm
03:30 AM 79.5°F26.4°C 69.3°F20.7°C 71% Calm Calm -- 29.82 in1009.8 mb 0.00 in0.0 mm 0.00 in0.0 mm 0.00 in0.0 mm
03:34 AM 79.3°F26.3°C 69.1°F20.6°C 71% Calm Calm -- 29.82 in1009.8 mb 0.00 in0.0 mm 0.00 in0.0 mm 0.00 in0.0 mm
03:40 AM 79.3°F26.3°C 69.1°F20.6°C 71% Calm Calm -- 29.83 in1010.2 mb 0.00 in0.0 mm 0.00 in0.0 mm 0.00 in0.0 mm
03:45 AM 79.2°F26.2°C 68.9°F20.5°C 72% Calm Calm -- 29.83 in1010.2 mb 0.00 in0.0 mm 0.00 in0.0 mm 0.00 in0.0 mm
03:49 AM 79.0°F26.1°C 68.8°F20.4°C 71% Calm Calm -- 29.83 in1010.2 mb 0.00 in0.0 mm 0.00 in0.0 mm 0.00 in0.0 mm
03:55 AM 79.0°F26.1°C 68.8°F20.4°C 71% Calm Calm -- 29.83 in1010.2 mb 0.00 in0.0 mm 0.00 in0.0 mm 0.00 in0.0 mm
04:00 AM 79.0°F26.1°C 68.8°F20.4°C 71% Calm Calm -- 29.83 in1010.2 mb 0.00 in0.0 mm 0.00 in0.0 mm 0.00 in0.0 mm
04:04 AM 78.8°F26.0°C 68.6°F20.3°C 71% Calm Calm -- 29.83 in1010.2 mb 0.00 in0.0 mm 0.00 in0.0 mm 0.00 in0.0 mm
04:10 AM 78.8°F26.0°C 68.6°F20.3°C 71% Calm Calm -- 29.83 in1010.2 mb 0.00 in0.0 mm 0.00 in0.0 mm 0.00 in0.0 mm
04:15 AM 78.6°F25.9°C 68.4°F20.2°C 71% Calm Calm -- 29.84 in1010.5 mb 0.00 in0.0 mm 0.00 in0.0 mm 0.00 in0.0 mm
04:19 AM 78.6°F25.9°C 68.4°F20.2°C 71% Calm Calm -- 29.83 in1010.2 mb 0.00 in0.0 mm 0.00 in0.0 mm 0.00 in0.0 mm
04:25 AM 78.6°F25.9°C 68.8°F20.4°C 72% Calm Calm -- 29.84 in1010.5 mb 0.00 in0.0 mm 0.00 in0.0 mm 0.00 in0.0 mm
04:30 AM 78.6°F25.9°C 68.8°F20.4°C 72% Calm Calm -- 29.84 in1010.5 mb 0.00 in0.0 mm 0.00 in0.0 mm 0.00 in0.0 mm
04:36 AM 78.4°F25.8°C 68.6°F20.3°C 72% Calm Calm -- 29.84 in1010.5 mb 0.00 in0.0 mm 0.00 in0.0 mm 0.00 in0.0 mm
04:40 AM 78.3°F25.7°C 68.6°F20.3°C 73% Calm Calm -- 29.84 in1010.5 mb 0.00 in0.0 mm 0.00 in0.0 mm 0.00 in0.0 mm
04:45 AM 78.1°F25.6°C 68.7°F20.4°C 73% Calm Calm -- 29.84 in1010.5 mb 0.00 in0.0 mm 0.00 in0.0 mm 0.00 in0.0 mm
04:51 AM 78.1°F25.6°C 68.7°F20.4°C 73% Calm Calm -- 29.84 in1010.5 mb 0.00 in0.0 mm 0.00 in0.0 mm 0.00 in0.0 mm
04:55 AM 78.1°F25.6°C 68.7°F20.4°C 73% Calm Calm -- 29.85 in1010.8 mb 0.00 in0.0 mm 0.00 in0.0 mm 0.00 in0.0 mm
05:00 AM 78.1°F25.6°C 68.7°F20.4°C 73% Calm Calm -- 29.85 in1010.8 mb 0.00 in0.0 mm 0.00 in0.0 mm 0.00 in0.0 mm
05:06 AM 78.1°F25.6°C 68.7°F20.4°C 73% Calm Calm -- 29.85 in1010.8 mb 0.00 in0.0 mm 0.00 in0.0 mm 0.00 in0.0 mm
05:13 AM 78.1°F25.6°C 68.7°F20.4°C 73% Calm Calm -- 29.85 in1010.8 mb 0.00 in0.0 mm 0.00 in0.0 mm 0.00 in0.0 mm
05:17 AM 78.1°F25.6°C 69.1°F20.6°C 74% Calm Calm -- 29.85 in1010.8 mb 0.00 in0.0 mm 0.00 in0.0 mm 0.00 in0.0 mm
05:23 AM 78.1°F25.6°C 68.7°F20.4°C 73% Calm Calm -- 29.86 in1011.2 mb 0.00 in0.0 mm 0.00 in0.0 mm 0.00 in0.0 mm
05:27 AM 78.1°F25.6°C 68.7°F20.4°C 73% Calm Calm -- 29.86 in1011.2 mb 0.00 in0.0 mm 0.00 in0.0 mm 0.00 in0.0 mm
05:32 AM 78.3°F25.7°C 68.9°F20.5°C 73% Calm Calm -- 29.86 in1011.2 mb 0.00 in0.0 mm 0.00 in0.0 mm 0.00 in0.0 mm
05:38 AM 78.4°F25.8°C 69.0°F20.6°C 73% Calm Calm -- 29.86 in1011.2 mb 0.00 in0.0 mm 0.00 in0.0 mm 0.00 in0.0 mm
05:42 AM 78.4°F25.8°C 69.0°F20.6°C 73% Calm Calm -- 29.86 in1011.2 mb 0.00 in0.0 mm 0.00 in0.0 mm 0.00 in0.0 mm
05:49 AM 78.4°F25.8°C 69.0°F20.6°C 73% Calm Calm -- 29.87 in1011.5 mb 0.00 in0.0 mm 0.00 in0.0 mm 0.00 in0.0 mm
05:53 AM 78.4°F25.8°C 69.4°F20.8°C 74% Calm Calm -- 29.87 in1011.5 mb 0.00 in0.0 mm 0.00 in0.0 mm 0.00 in0.0 mm
05:58 AM 78.4°F25.8°C 69.4°F20.8°C 74% Calm Calm -- 29.88 in1011.9 mb 0.00 in0.0 mm 0.00 in0.0 mm 0.00 in0.0 mm
06:04 AM 78.4°F25.8°C 69.0°F20.6°C 74% Calm Calm -- 29.88 in1011.9 mb 0.00 in0.0 mm 0.00 in0.0 mm 0.00 in0.0 mm
06:08 AM 78.4°F25.8°C 69.4°F20.8°C 74% Calm Calm -- 29.88 in1011.9 mb 0.00 in0.0 mm 0.00 in0.0 mm 0.00 in0.0 mm
06:15 AM 78.4°F25.8°C 69.4°F20.8°C 74% Calm Calm -- 29.88 in1011.9 mb 0.00 in0.0 mm 0.00 in0.0 mm 0.00 in0.0 mm
06:19 AM 78.4°F25.8°C 69.4°F20.8°C 74% Calm Calm -- 29.88 in1011.9 mb 0.00 in0.0 mm 0.00 in0.0 mm 0.00 in0.0 mm
06:25 AM 78.4°F25.8°C 69.4°F20.8°C 74% Calm Calm -- 29.88 in1011.9 mb 0.00 in0.0 mm 0.00 in0.0 mm 0.00 in0.0 mm
06:30 AM 78.4°F25.8°C 69.4°F20.8°C 74% Calm Calm -- 29.88 in1011.9 mb 0.00 in0.0 mm 0.00 in0.0 mm 0.00 in0.0 mm
06:36 AM 78.4°F25.8°C 69.4°F20.8°C 74% Calm Calm -- 29.88 in1011.9 mb 0.00 in0.0 mm 0.00 in0.0 mm 0.00 in0.0 mm
06:40 AM 78.3°F25.7°C 69.2°F20.7°C 74% Calm Calm -- 29.89 in1012.2 mb 0.00 in0.0 mm 0.00 in0.0 mm 0.00 in0.0 mm
06:45 AM 78.4°F25.8°C 69.4°F20.8°C 74% Calm Calm -- 29.88 in1011.9 mb 0.00 in0.0 mm 0.00 in0.0 mm 0.00 in0.0 mm
06:51 AM 78.4°F25.8°C 69.4°F20.8°C 74% Calm Calm -- 29.89 in1012.2 mb 0.00 in0.0 mm 0.00 in0.0 mm 0.00 in0.0 mm
06:55 AM 78.4°F25.8°C 69.0°F20.6°C 73% Calm Calm -- 29.89 in1012.2 mb 0.00 in0.0 mm 0.00 in0.0 mm 0.00 in0.0 mm
07:00 AM 78.4°F25.8°C 69.0°F20.6°C 73% Calm Calm -- 29.89 in1012.2 mb 0.00 in0.0 mm 0.00 in0.0 mm 0.00 in0.0 mm
07:06 AM 78.6°F25.9°C 69.2°F20.7°C 73% Calm Calm 0.4 mph0.6 kmh 29.89 in1012.2 mb 0.00 in0.0 mm 0.00 in0.0 mm 0.00 in0.0 mm
07:10 AM 78.6°F25.9°C 69.2°F20.7°C 73% Calm Calm 0.4 mph0.6 kmh 29.89 in1012.2 mb 0.00 in0.0 mm 0.00 in0.0 mm 0.00 in0.0 mm
07:17 AM 79.0°F26.1°C 69.4°F20.8°C 73% Calm Calm -- 29.89 in1012.2 mb 0.00 in0.0 mm 0.00 in0.0 mm 0.00 in0.0 mm
07:21 AM 79.0°F26.1°C 69.5°F20.8°C 73% Calm Calm -- 29.89 in1012.2 mb 0.00 in0.0 mm 0.00 in0.0 mm 0.00 in0.0 mm
07:25 AM 79.2°F26.2°C 69.3°F20.7°C 72% Calm Calm -- 29.89 in1012.2 mb 0.00 in0.0 mm 0.00 in0.0 mm 0.00 in0.0 mm
07:32 AM 79.5°F26.4°C 69.7°F20.9°C 72% 0.2 mph NNE0.3 kmh NNE 0.2 mph0.3 kmh 29.90 in1012.5 mb 0.00 in0.0 mm 0.00 in0.0 mm 0.00 in0.0 mm
07:36 AM 79.7°F26.5°C 69.9°F21.1°C 72% 0.4 mph NE0.6 kmh NE 0.7 mph1.1 kmh 29.90 in1012.5 mb 0.00 in0.0 mm 0.00 in0.0 mm 0.00 in0.0 mm
07:42 AM 80.2°F26.8°C 70.2°F21.2°C 72% Calm Calm 0.7 mph1.1 kmh 29.91 in1012.9 mb 0.00 in0.0 mm 0.00 in0.0 mm 0.00 in0.0 mm
07:47 AM 80.4°F26.9°C 70.2°F21.2°C 71% 0.9 mph 1.4 kmh 0.9 mph1.4 kmh 29.91 in1012.9 mb 0.00 in0.0 mm 0.00 in0.0 mm 0.00 in0.0 mm
07:53 AM 81.0°F27.2°C 70.3°F21.3°C 70% Calm Calm 0.9 mph1.4 kmh 29.91 in1012.9 mb 0.00 in0.0 mm 0.00 in0.0 mm 0.00 in0.0 mm
07:57 AM 81.1°F27.3°C 70.0°F21.1°C 69% Calm Calm -- 29.91 in1012.9 mb 0.00 in0.0 mm 0.00 in0.0 mm 0.00 in0.0 mm
08:02 AM 81.3°F27.4°C 70.2°F21.2°C 69% Calm Calm -- 29.91 in1012.9 mb 0.00 in0.0 mm 0.00 in0.0 mm 0.00 in0.0 mm
08:08 AM 81.7°F27.6°C 70.5°F21.4°C 69% Calm Calm -- 29.91 in1012.9 mb 0.00 in0.0 mm 0.00 in0.0 mm 0.00 in0.0 mm
08:12 AM 82.0°F27.8°C 70.4°F21.3°C 68% Calm Calm -- 29.91 in1012.9 mb 0.00 in0.0 mm 0.00 in0.0 mm 0.00 in0.0 mm
08:19 AM 82.6°F28.1°C 70.4°F21.3°C 67% Calm Calm -- 29.92 in1013.2 mb 0.00 in0.0 mm 0.00 in0.0 mm 0.00 in0.0 mm
08:23 AM 82.6°F28.1°C 70.4°F21.3°C 67% Calm Calm -- 29.91 in1012.9 mb 0.00 in0.0 mm 0.00 in0.0 mm 0.00 in0.0 mm
08:30 AM 82.9°F28.3°C 70.3°F21.3°C 66% Calm Calm -- 29.91 in1012.9 mb 0.00 in0.0 mm 0.00 in0.0 mm 0.00 in0.0 mm
08:34 AM 82.9°F28.3°C 70.3°F21.3°C 66% Calm Calm -- 29.91 in1012.9 mb 0.00 in0.0 mm 0.00 in0.0 mm 0.00 in0.0 mm
08:38 AM 82.9°F28.3°C 70.8°F21.6°C 67% Calm Calm -- 29.92 in1013.2 mb 0.00 in0.0 mm 0.00 in0.0 mm 0.00 in0.0 mm
08:45 AM 83.3°F28.5°C 71.2°F21.8°C 67% Calm Calm -- 29.92 in1013.2 mb 0.00 in0.0 mm 0.00 in0.0 mm 0.00 in0.0 mm
08:49 AM 83.5°F28.6°C 70.4°F21.3°C 65% Calm Calm -- 29.93 in1013.5 mb 0.00 in0.0 mm 0.00 in0.0 mm 0.00 in0.0 mm
08:53 AM 83.5°F28.6°C 70.9°F21.6°C 66% Calm Calm -- 29.93 in1013.5 mb 0.00 in0.0 mm 0.00 in0.0 mm 0.00 in0.0 mm
09:00 AM 83.8°F28.8°C 70.8°F21.6°C 65% Calm Calm -- 29.94 in1013.9 mb 0.00 in0.0 mm 0.00 in0.0 mm 0.00 in0.0 mm
09:04 AM 84.0°F28.9°C 71.0°F21.7°C 65% 0.4 mph SE0.6 kmh SE 0.4 mph0.6 kmh 29.94 in1013.9 mb 0.00 in0.0 mm 0.00 in0.0 mm 0.00 in0.0 mm
09:10 AM 84.4°F29.1°C 71.3°F21.8°C 65% Calm Calm 0.4 mph0.6 kmh 29.94 in1013.9 mb 0.00 in0.0 mm 0.00 in0.0 mm 0.00 in0.0 mm
09:15 AM 84.4°F29.1°C 71.3°F21.8°C 65% Calm Calm -- 29.94 in1013.9 mb 0.00 in0.0 mm 0.00 in0.0 mm 0.00 in0.0 mm
09:21 AM 84.7°F29.3°C 71.7°F22.1°C 65% Calm Calm -- 29.94 in1013.9 mb 0.00 in0.0 mm 0.00 in0.0 mm 0.00 in0.0 mm
09:25 AM 84.7°F29.3°C 71.2°F21.8°C 64% 0.2 mph ENE0.3 kmh ENE 0.2 mph0.3 kmh 29.95 in1014.2 mb 0.00 in0.0 mm 0.00 in0.0 mm 0.00 in0.0 mm
09:32 AM 84.7°F29.3°C 71.2°F21.8°C 64% Calm Calm 0.2 mph0.3 kmh 29.95 in1014.2 mb 0.00 in0.0 mm 0.00 in0.0 mm 0.00 in0.0 mm
09:36 AM 84.7°F29.3°C 71.2°F21.8°C 64% Calm Calm -- 29.95 in1014.2 mb 0.00 in0.0 mm 0.00 in0.0 mm 0.00 in0.0 mm
09:40 AM 84.9°F29.4°C 71.4°F21.9°C 64% Calm Calm -- 29.95 in1014.2 mb 0.00 in0.0 mm 0.00 in0.0 mm 0.00 in0.0 mm
09:47 AM 84.9°F29.4°C 71.4°F21.9°C 64% Calm Calm -- 29.95 in1014.2 mb 0.00 in0.0 mm 0.00 in0.0 mm 0.00 in0.0 mm
09:51 AM 84.9°F29.4°C 71.5°F21.9°C 64% Calm Calm -- 29.96 in1014.6 mb 0.00 in0.0 mm 0.00 in0.0 mm 0.00 in0.0 mm
09:57 AM 85.3°F29.6°C 71.2°F21.8°C 63% Calm Calm -- 29.95 in1014.2 mb 0.00 in0.0 mm 0.00 in0.0 mm 0.00 in0.0 mm
10:02 AM 85.3°F29.6°C 71.2°F21.8°C 63% Calm Calm -- 29.95 in1014.2 mb 0.00 in0.0 mm 0.00 in0.0 mm 0.00 in0.0 mm
10:06 AM 85.5°F29.7°C 71.4°F21.9°C 63% Calm Calm -- 29.95 in1014.2 mb 0.00 in0.0 mm 0.00 in0.0 mm 0.00 in0.0 mm
10:12 AM 85.6°F29.8°C 71.1°F21.7°C 62% Calm Calm -- 29.94 in1013.9 mb 0.00 in0.0 mm 0.00 in0.0 mm 0.00 in0.0 mm
10:17 AM 85.8°F29.9°C 71.3°F21.8°C 62% 0.2 mph ENE0.3 kmh ENE 0.4 mph0.6 kmh 29.94 in1013.9 mb 0.00 in0.0 mm 0.00 in0.0 mm 0.00 in0.0 mm
10:21 AM 85.8°F29.9°C 71.3°F21.8°C 62% Calm Calm 0.4 mph0.6 kmh 29.94 in1013.9 mb 0.00 in0.0 mm 0.00 in0.0 mm 0.00 in0.0 mm
10:27 AM 86.2°F30.1°C 71.6°F22.0°C 62% Calm Calm -- 29.94 in1013.9 mb 0.00 in0.0 mm 0.00 in0.0 mm 0.00 in0.0 mm
10:32 AM 86.4°F30.2°C 71.8°F22.1°C 62% Calm Calm -- 29.94 in1013.9 mb 0.00 in0.0 mm 0.00 in0.0 mm 0.00 in0.0 mm
10:36 AM 86.4°F30.2°C 71.3°F21.8°C 61% Calm Calm -- 29.94 in1013.9 mb 0.00 in0.0 mm 0.00 in0.0 mm 0.00 in0.0 mm
10:42 AM 86.5°F30.3°C 71.5°F21.9°C 61% Calm Calm -- 29.93 in1013.5 mb 0.00 in0.0 mm 0.00 in0.0 mm 0.00 in0.0 mm
10:47 AM 86.5°F30.3°C 72.0°F22.2°C 62% 0.7 mph SE1.1 kmh SE 0.7 mph1.1 kmh 29.93 in1013.5 mb 0.00 in0.0 mm 0.00 in0.0 mm 0.00 in0.0 mm
10:53 AM 86.4°F30.2°C 72.3°F22.4°C 63% Calm Calm 0.7 mph1.1 kmh 29.93 in1013.5 mb 0.00 in0.0 mm 0.00 in0.0 mm 0.00 in0.0 mm
10:57 AM 86.7°F30.4°C 72.6°F22.6°C 63% Calm Calm -- 29.93 in1013.5 mb 0.00 in0.0 mm 0.00 in0.0 mm 0.00 in0.0 mm
11:02 AM 87.1°F30.6°C 72.5°F22.5°C 62% 0.4 mph E0.6 kmh E 0.4 mph0.6 kmh 29.93 in1013.5 mb 0.00 in0.0 mm 0.00 in0.0 mm 0.00 in0.0 mm
11:08 AM 88.0°F31.1°C 72.6°F22.6°C 61% Calm Calm 0.4 mph0.6 kmh 29.93 in1013.5 mb 0.00 in0.0 mm 0.00 in0.0 mm 0.00 in0.0 mm
11:12 AM 88.2°F31.2°C 73.1°F22.8°C 61% Calm Calm 0.4 mph0.6 kmh 29.92 in1013.2 mb 0.00 in0.0 mm 0.00 in0.0 mm 0.00 in0.0 mm
11:17 AM 88.5°F31.4°C 73.0°F22.8°C 60% Calm Calm 0.2 mph0.3 kmh 29.92 in1013.2 mb 0.00 in0.0 mm 0.00 in0.0 mm 0.00 in0.0 mm
11:23 AM 89.2°F31.8°C 72.5°F22.5°C 58% Calm Calm -- 29.92 in1013.2 mb 0.00 in0.0 mm 0.00 in0.0 mm 0.00 in0.0 mm
11:27 AM 89.6°F32.0°C 72.9°F22.7°C 58% Calm Calm -- 29.92 in1013.2 mb 0.00 in0.0 mm 0.00 in0.0 mm 0.00 in0.0 mm
11:34 AM 90.0°F32.2°C 72.6°F22.6°C 57% Calm Calm 0.4 mph0.6 kmh 29.92 in1013.2 mb 0.00 in0.0 mm 0.00 in0.0 mm 0.00 in0.0 mm
11:38 AM 90.1°F32.3°C 72.8°F22.7°C 57% Calm Calm 0.4 mph0.6 kmh 29.92 in1013.2 mb 0.00 in0.0 mm 0.00 in0.0 mm 0.00 in0.0 mm
11:44 AM 90.3°F32.4°C 72.4°F22.4°C 56% 0.9 mph SSW1.4 kmh SSW 0.9 mph1.4 kmh 29.91 in1012.9 mb 0.00 in0.0 mm 0.00 in0.0 mm 0.00 in0.0 mm
11:49 AM 90.7°F32.6°C 73.3°F22.9°C 57% Calm Calm 0.9 mph1.4 kmh 29.92 in1013.2 mb 0.00 in0.0 mm 0.00 in0.0 mm 0.00 in0.0 mm
11:53 AM 90.7°F32.6°C 72.8°F22.7°C 56% Calm Calm 0.9 mph1.4 kmh 29.91 in1012.9 mb 0.00 in0.0 mm 0.00 in0.0 mm 0.00 in0.0 mm
11:59 AM 91.0°F32.8°C 73.1°F22.8°C 56% 0.9 mph SSE1.4 kmh SSE 0.9 mph1.4 kmh 29.91 in1012.9 mb 0.00 in0.0 mm 0.00 in0.0 mm 0.00 in0.0 mm
12:04 PM 91.0°F32.8°C 73.1°F22.8°C 56% Calm Calm 0.9 mph1.4 kmh 29.90 in1012.5 mb 0.00 in0.0 mm 0.00 in0.0 mm 0.00 in0.0 mm
12:10 PM 91.6°F33.1°C 73.0°F22.8°C 55% 0.9 mph E1.4 kmh E 1.6 mph2.6 kmh 29.90 in1012.5 mb 0.00 in0.0 mm 0.00 in0.0 mm 0.00 in0.0 mm
12:14 PM 91.9°F33.3°C 73.4°F23.0°C 55% Calm Calm 1.6 mph2.6 kmh 29.90 in1012.5 mb 0.00 in0.0 mm 0.00 in0.0 mm 0.00 in0.0 mm
12:21 PM 91.9°F33.3°C 72.8°F22.7°C 54% Calm Calm 1.1 mph1.8 kmh 29.89 in1012.2 mb 0.00 in0.0 mm 0.00 in0.0 mm 0.00 in0.0 mm
12:25 PM 92.3°F33.5°C 73.2°F22.9°C 54% 0.9 mph ESE1.4 kmh ESE 1.1 mph1.8 kmh 29.89 in1012.2 mb 0.00 in0.0 mm 0.00 in0.0 mm 0.00 in0.0 mm
12:31 PM 92.5°F33.6°C 73.3°F22.9°C 54% 0.6 mph ESE1.0 kmh ESE 1.1 mph1.8 kmh 29.89 in1012.2 mb 0.00 in0.0 mm 0.00 in0.0 mm 0.00 in0.0 mm
12:36 PM 92.5°F33.6°C 72.2°F22.3°C 52% 0.7 mph W1.1 kmh W 1.1 mph1.8 kmh 29.89 in1012.2 mb 0.00 in0.0 mm 0.00 in0.0 mm 0.00 in0.0 mm
12:40 PM 93.0°F33.9°C 72.7°F22.6°C 52% 0.2 mph SSW0.3 kmh SSW 0.7 mph1.1 kmh 29.88 in1011.9 mb 0.00 in0.0 mm 0.00 in0.0 mm 0.00 in0.0 mm
12:47 PM 93.0°F33.9°C 72.7°F22.6°C 52% Calm Calm 0.2 mph0.3 kmh 29.88 in1011.9 mb 0.00 in0.0 mm 0.00 in0.0 mm 0.00 in0.0 mm
12:51 PM 93.0°F33.9°C 71.6°F22.0°C 50% 1.3 mph SSW2.1 kmh SSW 1.3 mph2.1 kmh 29.87 in1011.5 mb 0.00 in0.0 mm 0.00 in0.0 mm 0.00 in0.0 mm
12:55 PM 92.5°F33.6°C 72.2°F22.3°C 52% 1.8 mph S2.9 kmh S 1.8 mph2.9 kmh 29.87 in1011.5 mb 0.00 in0.0 mm 0.00 in0.0 mm 0.00 in0.0 mm
01:02 PM 92.8°F33.8°C 72.0°F22.2°C 51% 0.2 mph S0.3 kmh S 1.8 mph2.9 kmh 29.87 in1011.5 mb 0.00 in0.0 mm 0.00 in0.0 mm 0.00 in0.0 mm
01:06 PM 92.7°F33.7°C 71.8°F22.1°C 51% Calm Calm 0.2 mph0.3 kmh 29.86 in1011.2 mb 0.00 in0.0 mm 0.00 in0.0 mm 0.00 in0.0 mm
01:12 PM 92.5°F33.6°C 71.7°F22.1°C 51% Calm Calm -- 29.86 in1011.2 mb 0.00 in0.0 mm 0.00 in0.0 mm 0.00 in0.0 mm
01:17 PM 92.3°F33.5°C 71.5°F21.9°C 51% Calm Calm -- 29.86 in1011.2 mb 0.00 in0.0 mm 0.00 in0.0 mm 0.00 in0.0 mm
01:21 PM 92.1°F33.4°C 71.3°F21.8°C 51% Calm Calm -- 29.86 in1011.2 mb 0.00 in0.0 mm 0.00 in0.0 mm 0.00 in0.0 mm
01:27 PM 91.8°F33.2°C 73.7°F23.2°C 56% Calm Calm -- 29.85 in1010.8 mb 0.00 in0.0 mm 0.00 in0.0 mm 0.00 in0.0 mm
01:34 PM 91.2°F32.9°C 77.3°F25.2°C 64% Calm Calm -- 29.84 in1010.5 mb 0.02 in0.5 mm 0.17 in4.3 mm 0.02 in0.5 mm
01:40 PM 91.6°F33.1°C 77.1°F25.1°C 63% Calm Calm -- 29.84 in1010.5 mb 0.02 in0.5 mm 0.00 in0.0 mm 0.03 in0.8 mm
01:44 PM 91.6°F33.1°C 75.7°F24.3°C 60% Calm Calm -- 29.84 in1010.5 mb 0.02 in0.5 mm 0.00 in0.0 mm 0.03 in0.8 mm
01:49 PM 91.8°F33.2°C 74.8°F23.8°C 58% Calm Calm -- 29.84 in1010.5 mb 0.02 in0.5 mm 0.00 in0.0 mm 0.03 in0.8 mm
01:55 PM 91.4°F33.0°C 74.5°F23.6°C 58% Calm Calm -- 29.83 in1010.2 mb 0.02 in0.5 mm 0.00 in0.0 mm 0.03 in0.8 mm
01:59 PM 91.6°F33.1°C 74.6°F23.7°C 58% Calm Calm -- 29.83 in1010.2 mb 0.02 in0.5 mm 0.00 in0.0 mm 0.03 in0.8 mm
02:06 PM 91.9°F33.3°C 72.3°F22.4°C 53% 1.1 mph SSW1.8 kmh SSW 1.1 mph1.8 kmh 29.82 in1009.8 mb 0.02 in0.5 mm 0.00 in0.0 mm 0.03 in0.8 mm
02:10 PM 92.3°F33.5°C 71.5°F21.9°C 51% 0.7 mph S1.1 kmh S 1.6 mph2.6 kmh 29.82 in1009.8 mb 0.02 in0.5 mm 0.00 in0.0 mm 0.03 in0.8 mm
02:14 PM 92.8°F33.8°C 72.0°F22.2°C 51% 1.1 mph W1.8 kmh W 1.6 mph2.6 kmh 29.81 in1009.5 mb 0.02 in0.5 mm 0.00 in0.0 mm 0.03 in0.8 mm
02:21 PM 93.7°F34.3°C 71.7°F22.1°C 49% 0.9 mph SSW1.4 kmh SSW 1.1 mph1.8 kmh 29.81 in1009.5 mb 0.02 in0.5 mm 0.00 in0.0 mm 0.03 in0.8 mm
02:25 PM 93.7°F34.3°C 72.3°F22.4°C 50% Calm Calm 0.9 mph1.4 kmh 29.81 in1009.5 mb 0.02 in0.5 mm 0.00 in0.0 mm 0.03 in0.8 mm
02:29 PM 93.7°F34.3°C 71.7°F22.1°C 49% Calm Calm 0.9 mph1.4 kmh 29.81 in1009.5 mb 0.02 in0.5 mm 0.00 in0.0 mm 0.03 in0.8 mm
02:36 PM 93.4°F34.1°C 72.0°F22.2°C 50% Calm Calm 0.9 mph1.4 kmh 29.81 in1009.5 mb 0.00 in0.0 mm 0.00 in0.0 mm 0.03 in0.8 mm
02:40 PM 93.0°F33.9°C 72.7°F22.6°C 52% 0.9 mph ENE1.4 kmh ENE 0.9 mph1.4 kmh 29.81 in1009.5 mb 0.00 in0.0 mm 0.00 in0.0 mm 0.03 in0.8 mm
02:44 PM 93.0°F33.9°C 72.7°F22.6°C 52% 0.4 mph S0.6 kmh S 0.9 mph1.4 kmh 29.81 in1009.5 mb 0.00 in0.0 mm 0.00 in0.0 mm 0.03 in0.8 mm
02:51 PM 93.0°F33.9°C 72.7°F22.6°C 52% Calm Calm 0.9 mph1.4 kmh 29.80 in1009.1 mb 0.00 in0.0 mm 0.00 in0.0 mm 0.03 in0.8 mm
02:55 PM 93.4°F34.1°C 72.0°F22.2°C 50% 1.6 mph SE2.6 kmh SE 1.6 mph2.6 kmh 29.80 in1009.1 mb 0.00 in0.0 mm 0.00 in0.0 mm 0.03 in0.8 mm
03:01 PM 93.7°F34.3°C 71.5°F21.9°C 48% 0.4 mph SW0.6 kmh SW 1.6 mph2.6 kmh 29.79 in1008.8 mb 0.00 in0.0 mm 0.00 in0.0 mm 0.03 in0.8 mm
03:06 PM 93.7°F34.3°C 71.7°F22.1°C 49% Calm Calm 1.6 mph2.6 kmh 29.78 in1008.5 mb 0.00 in0.0 mm 0.00 in0.0 mm 0.03 in0.8 mm
03:12 PM 94.1°F34.5°C 71.4°F21.9°C 48% 0.9 mph SE1.4 kmh SE 0.9 mph1.4 kmh 29.78 in1008.5 mb 0.00 in0.0 mm 0.00 in0.0 mm 0.03 in0.8 mm
03:16 PM 94.3°F34.6°C 71.5°F21.9°C 48% 1.1 mph SSW1.8 kmh SSW 1.1 mph1.8 kmh 29.78 in1008.5 mb 0.00 in0.0 mm 0.00 in0.0 mm 0.03 in0.8 mm
03:21 PM 94.1°F34.5°C 70.1°F21.2°C 46% 0.4 mph SE0.6 kmh SE 1.1 mph1.8 kmh 29.78 in1008.5 mb 0.00 in0.0 mm 0.00 in0.0 mm 0.03 in0.8 mm
03:27 PM 94.3°F34.6°C 70.2°F21.2°C 46% 0.7 mph SE1.1 kmh SE 0.7 mph1.1 kmh 29.78 in1008.5 mb 0.00 in0.0 mm 0.00 in0.0 mm 0.03 in0.8 mm
03:31 PM 94.5°F34.7°C 70.4°F21.3°C 46% 0.4 mph SW0.6 kmh SW 0.7 mph1.1 kmh 29.77 in1008.1 mb 0.00 in0.0 mm 0.00 in0.0 mm 0.03 in0.8 mm
03:38 PM 93.9°F34.4°C 70.9°F21.6°C 48% 0.7 mph S1.1 kmh S 0.7 mph1.1 kmh 29.77 in1008.1 mb 0.00 in0.0 mm 0.00 in0.0 mm 0.03 in0.8 mm
03:42 PM 93.9°F34.4°C 71.2°F21.8°C 48% Calm Calm 0.7 mph1.1 kmh 29.77 in1008.1 mb 0.00 in0.0 mm 0.00 in0.0 mm 0.03 in0.8 mm
03:46 PM 93.9°F34.4°C 71.2°F21.8°C 46% Calm Calm 0.7 mph1.1 kmh 29.77 in1008.1 mb 0.00 in0.0 mm 0.00 in0.0 mm 0.03 in0.8 mm
03:53 PM 93.9°F34.4°C 69.9°F21.1°C 46% 1.1 mph ENE1.8 kmh ENE 1.1 mph1.8 kmh 29.77 in1008.1 mb 0.00 in0.0 mm 0.00 in0.0 mm 0.03 in0.8 mm
03:57 PM 93.7°F34.3°C 71.0°F21.7°C 48% Calm Calm 1.1 mph1.8 kmh 29.77 in1008.1 mb 0.00 in0.0 mm 0.00 in0.0 mm 0.03 in0.8 mm
04:03 PM 93.4°F34.1°C 70.6°F21.4°C 49% Calm Calm -- 29.76 in1007.8 mb 0.00 in0.0 mm 0.00 in0.0 mm 0.03 in0.8 mm
04:08 PM 93.6°F34.2°C 70.8°F21.6°C 48% 0.4 mph ESE0.6 kmh ESE 1.6 mph2.6 kmh 29.76 in1007.8 mb 0.00 in0.0 mm 0.00 in0.0 mm 0.03 in0.8 mm
04:14 PM 93.6°F34.2°C 71.5°F21.9°C 49% 1.8 mph ESE2.9 kmh ESE 1.8 mph2.9 kmh 29.76 in1007.8 mb 0.00 in0.0 mm 0.00 in0.0 mm 0.03 in0.8 mm
04:18 PM 93.6°F34.2°C 70.8°F21.6°C 48% 1.8 mph S2.9 kmh S 1.8 mph2.9 kmh 29.75 in1007.5 mb 0.00 in0.0 mm 0.00 in0.0 mm 0.03 in0.8 mm
04:25 PM 93.4°F34.1°C 70.6°F21.4°C 48% 0.9 mph ESE1.4 kmh ESE 1.8 mph2.9 kmh 29.75 in1007.5 mb 0.00 in0.0 mm 0.00 in0.0 mm 0.03 in0.8 mm
04:29 PM 93.4°F34.1°C 71.3°F21.8°C 49% Calm Calm 1.6 mph2.6 kmh 29.74 in1007.1 mb 0.00 in0.0 mm 0.00 in0.0 mm 0.03 in0.8 mm
04:33 PM 93.6°F34.2°C 70.8°F21.6°C 48% Calm Calm 0.9 mph1.4 kmh 29.74 in1007.1 mb 0.00 in0.0 mm 0.00 in0.0 mm 0.03 in0.8 mm
04:40 PM 93.4°F34.1°C 70.8°F21.6°C 48% 1.1 mph SSE1.8 kmh SSE 1.1 mph1.8 kmh 29.74 in1007.1 mb 0.00 in0.0 mm 0.00 in0.0 mm 0.03 in0.8 mm
04:44 PM 93.6°F34.2°C 70.8°F21.6°C 48% Calm Calm 1.1 mph1.8 kmh 29.74 in1007.1 mb 0.00 in0.0 mm 0.00 in0.0 mm 0.03 in0.8 mm
04:48 PM 93.7°F34.3°C 71.0°F21.7°C 48% Calm Calm 1.1 mph1.8 kmh 29.74 in1007.1 mb 0.00 in0.0 mm 0.00 in0.0 mm 0.03 in0.8 mm
04:55 PM 93.7°F34.3°C 70.4°F21.3°C 47% Calm Calm -- 29.74 in1007.1 mb 0.00 in0.0 mm 0.00 in0.0 mm 0.03 in0.8 mm
04:59 PM 93.9°F34.4°C 69.7°F20.9°C 46% Calm Calm -- 29.74 in1007.1 mb 0.00 in0.0 mm 0.00 in0.0 mm 0.03 in0.8 mm
05:06 PM 93.9°F34.4°C 69.2°F20.7°C 46% Calm Calm -- 29.74 in1007.1 mb 0.00 in0.0 mm 0.00 in0.0 mm 0.03 in0.8 mm
05:10 PM 93.9°F34.4°C 69.9°F21.1°C 46% Calm Calm 0.7 mph1.1 kmh 29.74 in1007.1 mb 0.00 in0.0 mm 0.00 in0.0 mm 0.03 in0.8 mm
05:14 PM 93.9°F34.4°C 69.2°F20.7°C 45% 0.9 mph WSW1.4 kmh WSW 0.9 mph1.4 kmh 29.74 in1007.1 mb 0.00 in0.0 mm 0.00 in0.0 mm 0.03 in0.8 mm
05:21 PM 93.9°F34.4°C 69.2°F20.7°C 45% Calm Calm 0.9 mph1.4 kmh 29.75 in1007.5 mb 0.00 in0.0 mm 0.00 in0.0 mm 0.03 in0.8 mm
05:25 PM 93.7°F34.3°C 69.2°F20.7°C 45% Calm Calm 0.9 mph1.4 kmh 29.75 in1007.5 mb 0.00 in0.0 mm 0.00 in0.0 mm 0.03 in0.8 mm
05:29 PM 93.7°F34.3°C 69.0°F20.6°C 45% Calm Calm 1.6 mph2.6 kmh 29.75 in1007.5 mb 0.00 in0.0 mm 0.00 in0.0 mm 0.03 in0.8 mm
05:36 PM 93.6°F34.2°C 68.2°F20.1°C 44% 0.7 mph ENE1.1 kmh ENE 1.6 mph2.6 kmh 29.75 in1007.5 mb 0.00 in0.0 mm 0.00 in0.0 mm 0.03 in0.8 mm
05:40 PM 93.4°F34.1°C 68.1°F20.1°C 44% 0.9 mph WSW1.4 kmh WSW 0.9 mph1.4 kmh 29.75 in1007.5 mb 0.00 in0.0 mm 0.00 in0.0 mm 0.03 in0.8 mm
05:44 PM 93.4°F34.1°C 68.1°F20.1°C 44% 1.3 mph SW2.1 kmh SW 1.3 mph2.1 kmh 29.76 in1007.8 mb 0.00 in0.0 mm 0.00 in0.0 mm 0.03 in0.8 mm
05:50 PM 93.0°F33.9°C 66.4°F19.1°C 42% 0.7 mph SW1.1 kmh SW 1.3 mph2.1 kmh 29.76 in1007.8 mb 0.00 in0.0 mm 0.00 in0.0 mm 0.03 in0.8 mm
05:57 PM 92.8°F33.8°C 66.3°F19.1°C 42% Calm Calm 1.1 mph1.8 kmh 29.77 in1008.1 mb 0.00 in0.0 mm 0.00 in0.0 mm 0.03 in0.8 mm
06:01 PM 92.8°F33.8°C 66.3°F19.1°C 42% Calm Calm 1.1 mph1.8 kmh 29.77 in1008.1 mb 0.00 in0.0 mm 0.00 in0.0 mm 0.03 in0.8 mm
06:10 PM 92.5°F33.6°C 65.9°F18.8°C 42% Calm Calm 0.4 mph0.6 kmh 29.77 in1008.1 mb 0.00 in0.0 mm 0.00 in0.0 mm 0.03 in0.8 mm
06:14 PM 92.5°F33.6°C 66.6°F19.2°C 43% Calm Calm 0.4 mph0.6 kmh 29.77 in1008.1 mb 0.00 in0.0 mm 0.00 in0.0 mm 0.03 in0.8 mm
06:20 PM 92.1°F33.4°C 66.3°F19.1°C 43% Calm Calm -- 29.77 in1008.1 mb 0.00 in0.0 mm 0.00 in0.0 mm 0.03 in0.8 mm
06:25 PM 91.9°F33.3°C 66.1°F18.9°C 43% Calm Calm -- 29.77 in1008.1 mb 0.00 in0.0 mm 0.00 in0.0 mm 0.03 in0.8 mm
06:31 PM 91.6°F33.1°C 65.9°F18.8°C 43% Calm Calm -- 29.77 in1008.1 mb 0.00 in0.0 mm 0.00 in0.0 mm 0.03 in0.8 mm
06:35 PM 91.6°F33.1°C 66.4°F19.1°C 44% 0.4 mph SW0.6 kmh SW 0.4 mph0.6 kmh 29.77 in1008.1 mb 0.00 in0.0 mm 0.00 in0.0 mm 0.03 in0.8 mm
06:42 PM 91.2°F32.9°C 66.1°F18.9°C 44% Calm Calm 0.4 mph0.6 kmh 29.78 in1008.5 mb 0.00 in0.0 mm 0.00 in0.0 mm 0.03 in0.8 mm
06:48 PM 91.0°F32.8°C 65.9°F18.8°C 44% Calm Calm -- 29.77 in1008.1 mb 0.00 in0.0 mm 0.00 in0.0 mm 0.03 in0.8 mm
06:53 PM 90.7°F32.6°C 66.3°F19.1°C 45% Calm Calm -- 29.77 in1008.1 mb 0.00 in0.0 mm 0.00 in0.0 mm 0.03 in0.8 mm
06:57 PM 90.5°F32.5°C 66.1°F18.9°C 45% Calm Calm -- 29.77 in1008.1 mb 0.00 in0.0 mm 0.00 in0.0 mm 0.03 in0.8 mm
07:03 PM 90.3°F32.4°C 66.6°F19.2°C 46% Calm Calm -- 29.77 in1008.1 mb 0.00 in0.0 mm 0.00 in0.0 mm 0.03 in0.8 mm
07:08 PM 90.0°F32.2°C 67.1°F19.5°C 48% Calm Calm -- 29.77 in1008.1 mb 0.00 in0.0 mm 0.00 in0.0 mm 0.03 in0.8 mm
07:14 PM 89.4°F31.9°C 67.4°F19.7°C 48% Calm Calm -- 29.77 in1008.1 mb 0.00 in0.0 mm 0.00 in0.0 mm 0.03 in0.8 mm
07:18 PM 89.2°F31.8°C 67.6°F19.8°C 49% Calm Calm -- 29.78 in1008.5 mb 0.00 in0.0 mm 0.00 in0.0 mm 0.03 in0.8 mm
07:25 PM 88.9°F31.6°C 67.9°F19.9°C 50% Calm Calm -- 29.78 in1008.5 mb 0.00 in0.0 mm 0.00 in0.0 mm 0.03 in0.8 mm
07:29 PM 88.5°F31.4°C 67.6°F19.8°C 50% Calm Calm -- 29.78 in1008.5 mb 0.00 in0.0 mm 0.00 in0.0 mm 0.03 in0.8 mm
07:35 PM 88.3°F31.3°C 66.8°F19.3°C 49% Calm Calm 0.7 mph1.1 kmh 29.78 in1008.5 mb 0.00 in0.0 mm 0.00 in0.0 mm 0.03 in0.8 mm
07:40 PM 88.3°F31.3°C 66.8°F19.3°C 49% 0.4 mph SW0.6 kmh SW 0.7 mph1.1 kmh 29.78 in1008.5 mb 0.00 in0.0 mm 0.00 in0.0 mm 0.03 in0.8 mm
07:44 PM 88.2°F31.2°C 66.6°F19.2°C 49% Calm Calm 0.4 mph0.6 kmh 29.78 in1008.5 mb 0.00 in0.0 mm 0.00 in0.0 mm 0.03 in0.8 mm
07:50 PM 88.0°F31.1°C 66.6°F19.2°C 49% Calm Calm 0.4 mph0.6 kmh 29.79 in1008.8 mb 0.00 in0.0 mm 0.00 in0.0 mm 0.03 in0.8 mm
07:55 PM 88.0°F31.1°C 66.4°F19.1°C 49% Calm Calm 0.7 mph1.1 kmh 29.79 in1008.8 mb 0.00 in0.0 mm 0.00 in0.0 mm 0.03 in0.8 mm
07:59 PM 88.0°F31.1°C 66.4°F19.1°C 49% Calm Calm 0.7 mph1.1 kmh 29.79 in1008.8 mb 0.00 in0.0 mm 0.00 in0.0 mm 0.03 in0.8 mm
08:05 PM 88.0°F31.1°C 66.4°F19.1°C 49% 0.4 mph SW0.6 kmh SW 0.9 mph1.4 kmh 29.79 in1008.8 mb 0.00 in0.0 mm 0.00 in0.0 mm 0.03 in0.8 mm
08:10 PM 88.0°F31.1°C 65.8°F18.8°C 48% Calm Calm 0.9 mph1.4 kmh 29.79 in1008.8 mb 0.00 in0.0 mm 0.00 in0.0 mm 0.03 in0.8 mm
08:16 PM 88.0°F31.1°C 65.8°F18.8°C 48% Calm Calm 0.4 mph0.6 kmh 29.80 in1009.1 mb 0.00 in0.0 mm 0.00 in0.0 mm 0.03 in0.8 mm
08:20 PM 88.0°F31.1°C 65.2°F18.4°C 47% Calm Calm 0.4 mph0.6 kmh 29.80 in1009.1 mb 0.00 in0.0 mm 0.00 in0.0 mm 0.03 in0.8 mm
08:25 PM 88.0°F31.1°C 65.2°F18.4°C 46% Calm Calm -- 29.80 in1009.1 mb 0.00 in0.0 mm 0.00 in0.0 mm 0.03 in0.8 mm
08:31 PM 88.2°F31.2°C 63.9°F17.7°C 46% 0.7 mph SSW1.1 kmh SSW 0.7 mph1.1 kmh 29.81 in1009.5 mb 0.00 in0.0 mm 0.00 in0.0 mm 0.03 in0.8 mm
08:37 PM 88.2°F31.2°C 63.4°F17.4°C 44% 0.4 mph SW0.6 kmh SW 0.7 mph1.1 kmh 29.81 in1009.5 mb 0.00 in0.0 mm 0.00 in0.0 mm 0.03 in0.8 mm
08:42 PM 88.3°F31.3°C 63.6°F17.6°C 44% 0.2 mph W0.3 kmh W 1.1 mph1.8 kmh 29.81 in1009.5 mb 0.00 in0.0 mm 0.00 in0.0 mm 0.03 in0.8 mm
08:48 PM 88.3°F31.3°C 62.9°F17.2°C 43% Calm Calm 1.1 mph1.8 kmh 29.81 in1009.5 mb 0.00 in0.0 mm 0.00 in0.0 mm 0.03 in0.8 mm
08:53 PM 88.5°F31.4°C 63.1°F17.3°C 43% Calm Calm 0.9 mph1.4 kmh 29.81 in1009.5 mb 0.00 in0.0 mm 0.00 in0.0 mm 0.03 in0.8 mm
08:57 PM 88.5°F31.4°C 62.5°F16.9°C 42% Calm Calm -- 29.81 in1009.5 mb 0.00 in0.0 mm 0.00 in0.0 mm 0.03 in0.8 mm
09:03 PM 88.7°F31.5°C 62.6°F17.0°C 42% 0.4 mph S0.6 kmh S 0.4 mph0.6 kmh 29.82 in1009.8 mb 0.00 in0.0 mm 0.00 in0.0 mm 0.03 in0.8 mm
09:08 PM 88.7°F31.5°C 62.6°F17.0°C 42% Calm Calm 0.4 mph0.6 kmh 29.82 in1009.8 mb 0.00 in0.0 mm 0.00 in0.0 mm 0.03 in0.8 mm
09:14 PM 88.7°F31.5°C 62.6°F17.0°C 42% Calm Calm -- 29.83 in1010.2 mb 0.00 in0.0 mm 0.00 in0.0 mm 0.03 in0.8 mm
09:18 PM 88.5°F31.4°C 62.5°F16.9°C 42% Calm Calm -- 29.83 in1010.2 mb 0.00 in0.0 mm 0.00 in0.0 mm 0.03 in0.8 mm
09:22 PM 88.5°F31.4°C 62.5°F16.9°C 42% Calm Calm -- 29.83 in1010.2 mb 0.00 in0.0 mm 0.00 in0.0 mm 0.03 in0.8 mm
09:29 PM 88.3°F31.3°C 62.3°F16.8°C 42% Calm Calm -- 29.84 in1010.5 mb 0.00 in0.0 mm 0.00 in0.0 mm 0.03 in0.8 mm
09:33 PM 88.2°F31.2°C 62.8°F17.1°C 43% Calm Calm -- 29.84 in1010.5 mb 0.00 in0.0 mm 0.00 in0.0 mm 0.03 in0.8 mm
09:37 PM 88.0°F31.1°C 62.7°F17.1°C 43% Calm Calm -- 29.84 in1010.5 mb 0.00 in0.0 mm 0.00 in0.0 mm 0.03 in0.8 mm
09:44 PM 87.8°F31.0°C 62.5°F16.9°C 43% Calm Calm -- 29.85 in1010.8 mb 0.00 in0.0 mm 0.00 in0.0 mm 0.03 in0.8 mm
09:48 PM 87.6°F30.9°C 63.0°F17.2°C 44% Calm Calm -- 29.85 in1010.8 mb 0.00 in0.0 mm 0.00 in0.0 mm 0.03 in0.8 mm
09:53 PM 87.6°F30.9°C 63.0°F17.2°C 44% Calm Calm -- 29.85 in1010.8 mb 0.00 in0.0 mm 0.00 in0.0 mm 0.03 in0.8 mm
10:01 PM 87.6°F30.9°C 63.0°F17.2°C 44% Calm Calm -- 29.85 in1010.8 mb 0.00 in0.0 mm 0.00 in0.0 mm 0.03 in0.8 mm
10:05 PM 87.4°F30.8°C 62.8°F17.1°C 44% Calm Calm -- 29.85 in1010.8 mb 0.00 in0.0 mm 0.00 in0.0 mm 0.03 in0.8 mm
10:10 PM 87.4°F30.8°C 62.8°F17.1°C 44% 0.4 mph WSW0.6 kmh WSW 0.4 mph0.6 kmh 29.85 in1010.8 mb 0.00 in0.0 mm 0.00 in0.0 mm 0.03 in0.8 mm
10:16 PM 87.4°F30.8°C 62.8°F17.1°C 44% Calm Calm 0.4 mph0.6 kmh 29.85 in1010.8 mb 0.00 in0.0 mm 0.00 in0.0 mm 0.03 in0.8 mm
10:20 PM 87.1°F30.6°C 63.1°F17.3°C 45% 0.9 mph WSW1.4 kmh WSW 0.9 mph1.4 kmh 29.85 in1010.8 mb 0.00 in0.0 mm 0.00 in0.0 mm 0.03 in0.8 mm
10:27 PM 87.1°F30.6°C 63.1°F17.3°C 45% Calm Calm 0.9 mph1.4 kmh 29.86 in1011.2 mb 0.00 in0.0 mm 0.00 in0.0 mm 0.03 in0.8 mm
10:31 PM 87.1°F30.6°C 62.5°F16.9°C 44% 0.2 mph SW0.3 kmh SW 1.1 mph1.8 kmh 29.86 in1011.2 mb 0.00 in0.0 mm 0.00 in0.0 mm 0.03 in0.8 mm
10:35 PM 87.1°F30.6°C 63.1°F17.3°C 45% Calm Calm 1.1 mph1.8 kmh 29.86 in1011.2 mb 0.00 in0.0 mm 0.00 in0.0 mm 0.03 in0.8 mm
10:42 PM 87.1°F30.6°C 63.1°F17.3°C 45% 0.9 mph SW1.4 kmh SW 0.9 mph1.4 kmh 29.86 in1011.2 mb 0.00 in0.0 mm 0.00 in0.0 mm 0.03 in0.8 mm
10:46 PM 87.1°F30.6°C 63.1°F17.3°C 45% 0.7 mph WSW1.1 kmh WSW 0.9 mph1.4 kmh 29.86 in1011.2 mb 0.00 in0.0 mm 0.00 in0.0 mm 0.03 in0.8 mm
10:52 PM 87.1°F30.6°C 63.1°F17.3°C 45% 2.0 mph SW3.2 kmh SW 2.0 mph3.2 kmh 29.86 in1011.2 mb 0.00 in0.0 mm 0.00 in0.0 mm 0.03 in0.8 mm
10:57 PM 87.1°F30.6°C 63.1°F17.3°C 45% Calm Calm 2.0 mph3.2 kmh 29.86 in1011.2 mb 0.00 in0.0 mm 0.00 in0.0 mm 0.03 in0.8 mm
11:01 PM 87.1°F30.6°C 63.1°F17.3°C 45% Calm Calm 2.0 mph3.2 kmh 29.86 in1011.2 mb 0.00 in0.0 mm 0.00 in0.0 mm 0.03 in0.8 mm
11:07 PM 87.3°F30.7°C 63.3°F17.4°C 45% 0.9 mph SW1.4 kmh SW 1.1 mph1.8 kmh 29.86 in1011.2 mb 0.00 in0.0 mm 0.00 in0.0 mm 0.03 in0.8 mm
11:12 PM 87.1°F30.6°C 62.5°F16.9°C 44% Calm Calm 1.1 mph1.8 kmh 29.86 in1011.2 mb 0.00 in0.0 mm 0.00 in0.0 mm 0.03 in0.8 mm
11:16 PM 87.3°F30.7°C 62.7°F17.1°C 44% Calm Calm 1.6 mph2.6 kmh 29.86 in1011.2 mb 0.00 in0.0 mm 0.00 in0.0 mm 0.03 in0.8 mm
11:22 PM 87.1°F30.6°C 63.1°F17.3°C 45% 0.9 mph WSW1.4 kmh WSW 1.6 mph2.6 kmh 29.85 in1010.8 mb 0.00 in0.0 mm 0.00 in0.0 mm 0.03 in0.8 mm
11:27 PM 87.1°F30.6°C 63.8°F17.7°C 46% Calm Calm 0.9 mph1.4 kmh 29.85 in1010.8 mb 0.00 in0.0 mm 0.00 in0.0 mm 0.03 in0.8 mm
11:31 PM 86.7°F30.4°C 64.1°F17.8°C 47% 1.3 mph SW2.1 kmh SW 1.3 mph2.1 kmh 29.85 in1010.8 mb 0.00 in0.0 mm 0.00 in0.0 mm 0.03 in0.8 mm
11:37 PM 86.5°F30.3°C 63.9°F17.7°C 47% 1.3 mph SW2.1 kmh SW 1.3 mph2.1 kmh 29.86 in1011.2 mb 0.00 in0.0 mm 0.00 in0.0 mm 0.03 in0.8 mm
11:44 PM 86.2°F30.1°C 64.2°F17.9°C 48% 2.2 mph SW3.5 kmh SW 2.2 mph3.5 kmh 29.85 in1010.8 mb 0.00 in0.0 mm 0.00 in0.0 mm 0.03 in0.8 mm
11:48 PM 86.0°F30.0°C 64.0°F17.8°C 48% Calm Calm 2.2 mph3.5 kmh 29.85 in1010.8 mb 0.00 in0.0 mm 0.00 in0.0 mm 0.03 in0.8 mm
11:55 PM 85.6°F29.8°C 64.3°F17.9°C 49% 0.9 mph SW1.4 kmh SW 1.3 mph2.1 kmh 29.85 in1010.8 mb 0.00 in0.0 mm 0.00 in0.0 mm 0.03 in0.8 mm
11:59 PM 85.5°F29.7°C 64.2°F17.9°C 49% 0.9 mph WSW1.4 kmh WSW 0.9 mph1.4 kmh 29.85 in1010.8 mb 0.00 in0.0 mm 0.00 in0.0 mm 0.03 in0.8 mm